Weather reports worldwide

Advertisment
Palma/Son Bonet, Spain (8302): temperature & dewpoint: 12.09.2019 06:00:00 - 18.09.2019 06:00:00 (CEST)Palma/Son Bonet, Spain (8302): wind speed: 12.09.2019 06:00:00 - 18.09.2019 06:00:00 (CEST)Palma/Son Bonet, Spain (8302): wind direction: 12.09.2019 06:00:00 - 18.09.2019 06:00:00 (CEST)Palma/Son Bonet, Spain (8302): visibility: 12.09.2019 06:00:00 - 18.09.2019 06:00:00 (CEST)
Date & Time tt [°C] td [°C] ff [km/h] ff [kn] dd vv [km]
18.09.2019 06:00:00 - - - - - -
18.09.2019 05:00:00 20,0 18,0 5 3 N 10
18.09.2019 04:00:00 22,0 19,0 4 2 - 10
18.09.2019 03:00:00 22,0 19,0 5 3 WNW 10
18.09.2019 02:00:00 22,0 19,0 5 3 NNW 10
18.09.2019 01:00:00 23,0 19,0 4 2 - 10
18.09.2019 00:00:00 23,0 21,0 11 6 WSW 10
17.09.2019 23:00:00 24,0 21,0 9 5 S 10
17.09.2019 22:00:00 24,0 21,0 9 5 S 10
17.09.2019 21:00:00 25,0 21,0 9 5 SSE 10
17.09.2019 20:00:00 25,0 20,0 9 5 S 10
17.09.2019 19:00:00 27,0 20,0 13 7 S 10
17.09.2019 18:00:00 28,0 20,0 16 9 SSW 10
17.09.2019 17:00:00 29,0 19,0 21 11 SW 10
17.09.2019 16:00:00 29,0 19,0 21 11 SW 10
17.09.2019 15:00:00 28,0 20,0 22 12 SW 10
17.09.2019 14:00:00 28,0 20,0 18 10 SW 10
17.09.2019 13:00:00 28,0 21,0 9 5 S 10
17.09.2019 12:00:00 27,0 21,0 9 5 SSW 10
17.09.2019 11:00:00 26,0 21,0 4 2 - 10
17.09.2019 10:00:00 25,0 20,0 4 2 - 10
17.09.2019 09:00:00 23,0 20,0 2 1 - 10
17.09.2019 08:00:00 21,0 19,0 4 2 - 10
17.09.2019 07:00:00 21,0 19,0 8 4 NNE 10
17.09.2019 06:00:00 21,0 19,0 5 3 N 10
17.09.2019 05:00:00 21,0 19,0 8 4 N 10
17.09.2019 04:00:00 21,0 19,0 5 3 N 10
17.09.2019 03:00:00 21,0 20,0 8 4 N 10
17.09.2019 02:00:00 22,0 20,0 4 2 N 10
17.09.2019 01:00:00 22,0 20,0 5 3 N 10
17.09.2019 00:00:00 23,0 21,0 5 3 NW 10
16.09.2019 23:00:00 24,0 22,0 5 3 ENE 10
16.09.2019 22:00:00 24,0 22,0 13 7 ENE 10
16.09.2019 21:00:00 25,0 22,0 15 8 ENE 10
16.09.2019 20:00:00 25,0 22,0 15 8 ENE 10
16.09.2019 19:00:00 26,0 22,0 11 6 ENE 10
16.09.2019 18:00:00 26,0 22,0 16 9 ENE 10
16.09.2019 17:00:00 26,0 21,0 16 9 E 10
16.09.2019 16:00:00 27,0 21,0 15 8 E 10
16.09.2019 15:00:00 27,0 21,0 16 9 ESE 10
16.09.2019 14:00:00 27,0 20,0 16 9 E 10
16.09.2019 13:00:00 28,0 20,0 16 9 E 10
16.09.2019 12:00:00 28,0 19,0 15 8 E 10
16.09.2019 11:00:00 27,0 19,0 21 11 E 10
16.09.2019 10:00:00 26,0 19,0 22 12 ENE 10
16.09.2019 09:00:00 24,0 20,0 16 9 ENE 10
16.09.2019 08:00:00 23,0 20,0 16 9 ENE 10
16.09.2019 07:00:00 23,0 20,0 15 8 NE 10
16.09.2019 06:00:00 23,0 21,0 15 8 NE 10
16.09.2019 05:00:00 23,0 20,0 15 8 ENE 10
16.09.2019 04:00:00 24,0 19,0 15 8 ENE 10
16.09.2019 03:00:00 23,0 17,0 13 7 E 10
16.09.2019 02:00:00 25,0 15,0 9 5 ENE 10
16.09.2019 01:00:00 25,0 17,0 15 8 NE 10
16.09.2019 00:00:00 25,0 18,0 15 8 NE 10
15.09.2019 23:00:00 25,0 20,0 15 8 NE 10
15.09.2019 22:00:00 25,0 20,0 22 12 ENE 10
15.09.2019 21:00:00 26,0 20,0 18 10 ENE 10
15.09.2019 20:00:00 26,0 20,0 21 11 E 10
15.09.2019 19:00:00 28,0 20,0 24 13 E 10
15.09.2019 18:00:00 30,0 20,0 18 10 E 10
15.09.2019 17:00:00 30,0 19,0 26 14 E 10
15.09.2019 16:00:00 31,0 20,0 21 11 ESE 10
15.09.2019 15:00:00 31,0 19,0 22 12 SE 10
15.09.2019 14:00:00 31,0 20,0 22 12 E 10
15.09.2019 13:00:00 31,0 19,0 24 13 E 10
15.09.2019 12:00:00 29,0 19,0 28 15 E 10
15.09.2019 11:00:00 27,0 21,0 26 14 ENE 10
15.09.2019 10:00:00 26,0 21,0 24 13 ENE 10
15.09.2019 09:00:00 25,0 21,0 18 10 ENE 10
15.09.2019 08:00:00 24,0 21,0 18 10 ENE 10
15.09.2019 07:00:00 24,0 21,0 18 10 ENE 10
15.09.2019 06:00:00 24,0 21,0 22 12 ENE 10
15.09.2019 05:00:00 24,0 21,0 24 13 NE 10
15.09.2019 04:00:00 24,0 20,0 13 7 NE 10
15.09.2019 03:00:00 24,0 21,0 15 8 NE 10
15.09.2019 02:00:00 24,0 20,0 5 3 E 10
15.09.2019 01:00:00 24,0 20,0 31 17 NE 10
15.09.2019 00:00:00 24,0 20,0 24 13 E 10
14.09.2019 23:00:00 24,0 20,0 21 11 ENE 10
14.09.2019 22:00:00 24,0 20,0 21 11 ENE 10
14.09.2019 21:00:00 25,0 20,0 22 12 ENE 10
14.09.2019 20:00:00 25,0 21,0 26 14 ENE 10
14.09.2019 19:00:00 27,0 21,0 22 12 ENE 10
14.09.2019 18:00:00 28,0 21,0 26 14 ENE 10
14.09.2019 17:00:00 29,0 19,0 24 13 ENE 10
14.09.2019 16:00:00 30,0 18,0 22 12 E 10
14.09.2019 15:00:00 30,0 14,0 26 14 E 10
14.09.2019 14:00:00 30,0 15,0 24 13 ENE 10
14.09.2019 13:00:00 28,0 17,0 22 12 ENE 10
14.09.2019 12:00:00 27,0 17,0 24 13 ENE 10
14.09.2019 11:00:00 26,0 17,0 26 14 ENE 10
14.09.2019 10:00:00 26,0 14,0 21 11 E 10
14.09.2019 09:00:00 23,0 15,0 9 5 ENE 10
14.09.2019 08:00:00 23,0 15,0 16 9 E 10
14.09.2019 07:00:00 23,0 15,0 26 14 NE 10
14.09.2019 06:00:00 24,0 14,0 26 14 NE 10
14.09.2019 05:00:00 23,0 15,0 24 13 NE 10
14.09.2019 04:00:00 23,0 15,0 26 14 ENE 10
14.09.2019 03:00:00 24,0 12,0 22 12 NE 10
14.09.2019 02:00:00 22,0 12,0 11 6 ENE 10
14.09.2019 01:00:00 23,0 12,0 13 7 NNE 10
14.09.2019 00:00:00 25,0 11,0 15 8 E 10
13.09.2019 23:00:00 26,0 11,0 16 9 NNW 10
13.09.2019 22:00:00 24,0 17,0 18 10 ENE 10
13.09.2019 21:00:00 24,0 20,0 24 13 ENE 10
13.09.2019 20:00:00 24,0 21,0 16 9 NE 10
13.09.2019 19:00:00 24,0 21,0 21 11 ENE 10
13.09.2019 18:00:00 24,0 21,0 24 13 ENE 10
13.09.2019 17:00:00 24,0 20,0 26 14 NE 10
13.09.2019 16:00:00 24,0 20,0 24 13 ENE 10
13.09.2019 15:00:00 23,0 20,0 34 18 ENE 10
13.09.2019 14:00:00 24,0 18,0 16 9 NE 10
13.09.2019 13:00:00 22,0 17,0 15 8 NE 10
13.09.2019 12:00:00 21,0 18,0 26 14 ENE 10
13.09.2019 11:00:00 21,0 19,0 29 16 ENE 10
13.09.2019 10:00:00 21,0 19,0 9 5 NW 7
13.09.2019 09:00:00 23,0 18,0 29 16 NE 10
13.09.2019 08:00:00 23,0 18,0 22 12 NE 10
13.09.2019 07:00:00 23,0 18,0 26 14 NE 10
13.09.2019 06:00:00 22,0 18,0 34 18 ENE 10
13.09.2019 05:00:00 22,0 20,0 34 18 ENE 9
13.09.2019 04:00:00 23,0 20,0 29 16 NE 10
13.09.2019 03:00:00 23,0 19,0 21 11 ENE 10
13.09.2019 02:00:00 22,0 19,0 11 6 E 10
13.09.2019 01:00:00 23,0 18,0 13 7 E 10
13.09.2019 00:00:00 23,0 14,0 11 6 NE 10
12.09.2019 23:00:00 23,0 16,0 16 9 NE 10
12.09.2019 22:00:00 23,0 16,0 9 5 ENE 10
12.09.2019 21:00:00 23,0 16,0 15 8 NE 10
12.09.2019 20:00:00 24,0 16,0 18 10 NE 10
12.09.2019 19:00:00 25,0 15,0 18 10 NE 10
12.09.2019 18:00:00 26,0 13,0 29 16 ENE 10
12.09.2019 17:00:00 26,0 13,0 31 17 NE 10
12.09.2019 16:00:00 26,0 14,0 34 18 NE 10
12.09.2019 15:00:00 27,0 14,0 37 20 ENE 10
12.09.2019 14:00:00 28,0 14,0 39 21 ENE 10
12.09.2019 13:00:00 27,0 14,0 31 17 ENE 10
12.09.2019 12:00:00 27,0 13,0 42 23 ENE 10
12.09.2019 11:00:00 26,0 14,0 39 21 ENE 10
12.09.2019 10:00:00 24,0 15,0 39 21 ENE 10
12.09.2019 09:00:00 23,0 16,0 24 13 NE 10
12.09.2019 08:00:00 23,0 18,0 31 17 ENE 10
12.09.2019 07:00:00 23,0 17,0 31 17 ENE 10
12.09.2019 06:00:00 23,0 17,0 29 16 ENE 10

tt = temperature
td = dewpoint
ff = wind speed
dd = wind direction
vv = visibility

Next stations